createdAt,value
2024-01-16T00:00:13.381Z,21.38
2024-01-16T00:01:13.417Z,21.38
2024-01-16T00:02:13.407Z,21.40
2024-01-16T00:03:13.408Z,21.41
2024-01-16T00:04:13.684Z,21.35
2024-01-16T00:05:13.518Z,21.38
2024-01-16T00:06:13.517Z,21.40
2024-01-16T00:07:13.499Z,21.40
2024-01-16T00:08:13.429Z,21.43
2024-01-16T00:09:13.401Z,21.43
2024-01-16T00:10:13.417Z,21.37
2024-01-16T00:11:13.443Z,21.44
2024-01-16T00:12:13.398Z,21.38
2024-01-16T00:13:13.426Z,21.41
2024-01-16T00:14:13.469Z,21.40
2024-01-16T00:15:13.401Z,21.34
2024-01-16T00:16:13.436Z,21.38
2024-01-16T00:17:13.430Z,21.38
2024-01-16T00:18:13.572Z,21.41
2024-01-16T00:19:13.575Z,21.43
2024-01-16T00:20:13.483Z,21.42
2024-01-16T00:21:13.441Z,21.38
2024-01-16T00:22:13.428Z,21.41
2024-01-16T00:23:13.439Z,21.44
2024-01-16T00:24:13.451Z,21.42
2024-01-16T00:25:13.446Z,21.39
2024-01-16T00:26:13.563Z,21.41
2024-01-16T00:27:13.418Z,21.41
2024-01-16T00:28:13.423Z,21.38
2024-01-16T00:29:13.811Z,21.41
2024-01-16T00:30:13.455Z,21.46
2024-01-16T00:31:13.450Z,21.42
2024-01-16T00:32:13.458Z,21.37
2024-01-16T00:33:13.621Z,21.41
2024-01-16T00:34:13.485Z,21.42
2024-01-16T00:35:13.484Z,21.36
2024-01-16T00:36:13.476Z,21.47
2024-01-16T00:37:13.457Z,21.41
2024-01-16T00:38:13.507Z,21.46
2024-01-16T00:39:13.489Z,21.44
2024-01-16T00:40:13.488Z,21.42
2024-01-16T00:41:13.544Z,21.41
2024-01-16T00:42:13.483Z,21.42
2024-01-16T00:43:13.531Z,21.41
2024-01-16T00:44:13.550Z,21.44
2024-01-16T00:45:13.541Z,21.44
2024-01-16T00:46:13.581Z,21.45
2024-01-16T00:47:13.634Z,21.44
2024-01-16T00:48:13.865Z,21.46
2024-01-16T00:49:13.718Z,21.42
2024-01-16T00:50:13.657Z,21.44
2024-01-16T00:51:13.615Z,21.39
2024-01-16T00:52:13.673Z,21.44
2024-01-16T00:53:13.738Z,21.39
2024-01-16T00:54:13.709Z,21.44
2024-01-16T00:55:13.721Z,21.47
2024-01-16T00:56:13.930Z,21.42
2024-01-16T00:57:13.766Z,21.44
2024-01-16T00:58:13.769Z,21.50
2024-01-16T00:59:13.878Z,21.42
2024-01-16T01:00:13.794Z,21.47
2024-01-16T01:01:13.841Z,21.45
2024-01-16T01:02:13.860Z,21.48
2024-01-16T01:03:13.826Z,21.42
2024-01-16T01:04:13.919Z,21.47
2024-01-16T01:05:13.993Z,21.50
2024-01-16T01:06:13.966Z,21.48
2024-01-16T01:07:13.933Z,21.47
2024-01-16T01:08:13.993Z,21.50
2024-01-16T01:09:13.968Z,21.45
2024-01-16T01:10:14.013Z,21.45
2024-01-16T01:11:14.055Z,21.45
2024-01-16T01:12:14.018Z,21.44
2024-01-16T01:13:14.014Z,21.47
2024-01-16T01:14:14.202Z,21.47
2024-01-16T01:15:14.151Z,21.45
2024-01-16T01:16:14.092Z,21.47
2024-01-16T01:17:14.126Z,21.47
2024-01-16T01:18:14.220Z,21.47
2024-01-16T01:19:14.217Z,21.50
2024-01-16T01:20:14.186Z,21.50
2024-01-16T01:21:14.180Z,21.50
2024-01-16T01:22:14.188Z,21.46
2024-01-16T01:23:14.291Z,21.48
2024-01-16T01:24:14.244Z,21.49
2024-01-16T01:25:14.245Z,21.45
2024-01-16T01:26:14.353Z,21.47
2024-01-16T01:27:14.265Z,21.42
2024-01-16T01:28:14.333Z,21.49
2024-01-16T01:29:14.371Z,21.48
2024-01-16T01:30:14.419Z,21.48
2024-01-16T01:31:14.377Z,21.48
2024-01-16T01:32:14.423Z,21.50
2024-01-16T01:33:14.625Z,21.56
2024-01-16T01:34:14.500Z,21.46
2024-01-16T01:35:14.481Z,21.53
2024-01-16T01:36:14.483Z,21.46
2024-01-16T01:37:14.512Z,21.48
2024-01-16T01:38:14.593Z,21.51
2024-01-16T01:39:14.569Z,21.54
2024-01-16T01:40:14.593Z,21.49
2024-01-16T01:41:14.623Z,21.55
2024-01-16T01:42:14.650Z,21.51
2024-01-16T01:43:14.678Z,21.51
2024-01-16T01:44:14.702Z,21.48
2024-01-16T01:45:14.682Z,21.45
2024-01-16T01:46:14.694Z,21.46
2024-01-16T01:47:14.789Z,21.51
2024-01-16T01:48:14.930Z,21.46
2024-01-16T01:49:14.822Z,21.54
2024-01-16T01:50:14.863Z,21.51
2024-01-16T01:51:14.826Z,21.45
2024-01-16T01:52:14.876Z,21.52
2024-01-16T01:53:14.934Z,21.49
2024-01-16T01:54:14.928Z,21.51
2024-01-16T01:55:14.990Z,21.49
2024-01-16T01:56:14.997Z,21.52
2024-01-16T01:57:14.961Z,21.48
2024-01-16T01:58:14.960Z,21.55
2024-01-16T01:59:15.001Z,21.46
2024-01-16T02:00:15.035Z,21.49
2024-01-16T02:01:15.170Z,21.51
2024-01-16T02:02:15.143Z,21.55
2024-01-16T02:03:15.180Z,21.48
2024-01-16T02:04:15.171Z,21.52
2024-01-16T02:05:15.220Z,21.49
2024-01-16T02:06:15.306Z,21.47
2024-01-16T02:07:15.222Z,21.51
2024-01-16T02:08:15.316Z,21.52
2024-01-16T02:09:15.310Z,21.49
2024-01-16T02:10:15.313Z,21.51
2024-01-16T02:11:15.392Z,21.52
2024-01-16T02:12:15.349Z,21.52
2024-01-16T02:13:15.356Z,21.51
2024-01-16T02:14:15.478Z,21.57
2024-01-16T02:15:15.441Z,21.55
2024-01-16T02:16:15.451Z,21.55
2024-01-16T02:17:15.453Z,21.51
2024-01-16T02:18:15.539Z,21.53
2024-01-16T02:19:15.524Z,21.55
2024-01-16T02:20:15.585Z,21.53
2024-01-16T02:21:15.584Z,21.52
2024-01-16T02:22:15.623Z,21.53
2024-01-16T02:23:15.680Z,21.52
2024-01-16T02:24:15.649Z,21.53
2024-01-16T02:25:15.671Z,21.53
2024-01-16T02:26:15.793Z,21.49
2024-01-16T02:27:15.720Z,21.52
2024-01-16T02:28:15.761Z,21.55
2024-01-16T02:29:15.781Z,21.51
2024-01-16T02:30:15.915Z,21.53
2024-01-16T02:31:15.862Z,21.50
2024-01-16T02:32:15.904Z,21.56
2024-01-16T02:33:16.084Z,21.55
2024-01-16T02:34:16.085Z,21.56
2024-01-16T02:35:16.038Z,21.53
2024-01-16T02:36:16.038Z,21.56
2024-01-16T02:37:16.090Z,21.55
2024-01-16T02:38:16.160Z,21.58
2024-01-16T02:39:16.147Z,21.56
2024-01-16T02:40:16.225Z,21.53
2024-01-16T02:41:16.285Z,21.52
2024-01-16T02:42:16.225Z,21.55
2024-01-16T02:43:16.276Z,21.52
2024-01-16T02:44:16.402Z,21.52
2024-01-16T02:45:16.342Z,21.59
2024-01-16T02:46:16.427Z,21.55
2024-01-16T02:47:16.415Z,21.53
2024-01-16T02:48:16.570Z,21.56
2024-01-16T02:49:16.510Z,21.53
2024-01-16T02:50:16.558Z,21.55
2024-01-16T02:51:16.567Z,21.56
2024-01-16T02:52:16.606Z,21.56
2024-01-16T02:53:16.671Z,21.53
2024-01-16T02:54:16.650Z,21.52
2024-01-16T02:55:16.674Z,21.55
2024-01-16T02:56:16.738Z,21.55
2024-01-16T02:57:16.782Z,21.55
2024-01-16T02:58:16.816Z,21.53
2024-01-16T02:59:16.882Z,21.56
2024-01-16T03:00:16.859Z,21.50
2024-01-16T03:01:16.976Z,21.53
2024-01-16T03:02:16.961Z,21.52
2024-01-16T03:03:16.978Z,21.53
2024-01-16T03:04:16.988Z,21.56
2024-01-16T03:05:17.099Z,21.50
2024-01-16T03:06:17.183Z,21.55
2024-01-16T03:07:17.100Z,21.53
2024-01-16T03:08:17.192Z,21.55
2024-01-16T03:09:17.145Z,21.55
2024-01-16T03:10:17.211Z,21.52
2024-01-16T03:11:17.273Z,21.56
2024-01-16T03:12:17.290Z,21.55
2024-01-16T03:13:17.348Z,21.53
2024-01-16T03:14:17.459Z,21.55
2024-01-16T03:15:17.402Z,21.49
2024-01-16T03:16:17.408Z,21.53
2024-01-16T03:17:17.472Z,21.52
2024-01-16T03:18:17.647Z,21.56
2024-01-16T03:19:17.533Z,21.53
2024-01-16T03:20:17.633Z,21.55
2024-01-16T03:21:17.606Z,21.56
2024-01-16T03:22:17.604Z,21.49
2024-01-16T03:23:17.668Z,21.55
2024-01-16T03:24:17.710Z,21.50
2024-01-16T03:25:17.721Z,21.54
2024-01-16T03:26:17.891Z,21.56
2024-01-16T03:27:17.821Z,21.53
2024-01-16T03:28:17.830Z,21.56
2024-01-16T03:29:18.003Z,21.52
2024-01-16T03:30:18.096Z,21.58
2024-01-16T03:31:17.992Z,21.53
2024-01-16T03:32:17.998Z,21.52
2024-01-16T03:33:18.225Z,21.56
2024-01-16T03:34:18.040Z,21.52
2024-01-16T03:35:18.083Z,21.54
2024-01-16T03:36:18.090Z,21.56
2024-01-16T03:37:18.160Z,21.54
2024-01-16T03:38:18.201Z,21.53
2024-01-16T03:39:18.220Z,21.56
2024-01-16T03:40:18.283Z,21.54
2024-01-16T03:41:18.318Z,21.54
2024-01-16T03:42:18.332Z,21.53
2024-01-16T03:43:18.364Z,21.53
2024-01-16T03:44:18.448Z,21.56
2024-01-16T03:45:18.443Z,21.50
2024-01-16T03:46:18.503Z,21.57
2024-01-16T03:47:18.554Z,21.54
2024-01-16T03:48:18.767Z,21.54
2024-01-16T03:49:18.692Z,21.57
2024-01-16T03:50:18.713Z,21.56
2024-01-16T03:51:18.711Z,21.59
2024-01-16T03:52:18.728Z,21.57
2024-01-16T03:53:18.842Z,21.57
2024-01-16T03:54:18.845Z,21.53
2024-01-16T03:55:18.910Z,21.54
2024-01-16T03:56:19.009Z,21.53
2024-01-16T03:57:18.995Z,21.57
2024-01-16T03:58:19.023Z,21.57
2024-01-16T03:59:19.082Z,21.63
2024-01-16T04:00:19.099Z,21.57
2024-01-16T04:01:19.211Z,21.56
2024-01-16T04:02:19.339Z,21.57
2024-01-16T04:03:19.249Z,21.63
2024-01-16T04:04:19.331Z,21.57
2024-01-16T04:05:19.497Z,21.57
2024-01-16T04:06:19.501Z,21.62
2024-01-16T04:07:19.470Z,21.59
2024-01-16T04:08:26.616Z,21.62
2024-01-16T04:09:26.572Z,21.59
2024-01-16T04:10:26.568Z,21.55
2024-01-16T04:11:26.592Z,21.57
2024-01-16T04:12:26.582Z,21.60
2024-01-16T04:13:26.591Z,21.57
2024-01-16T04:14:26.619Z,21.52
2024-01-16T04:15:26.599Z,21.55
2024-01-16T04:16:26.572Z,21.55
2024-01-16T04:17:26.625Z,21.59
2024-01-16T04:18:26.604Z,21.52
2024-01-16T04:19:26.589Z,21.60
2024-01-16T04:20:26.586Z,21.57
2024-01-16T04:21:26.582Z,21.59
2024-01-16T04:22:26.585Z,21.60
2024-01-16T04:23:26.624Z,21.64
2024-01-16T04:24:26.614Z,21.60
2024-01-16T04:25:26.606Z,21.57
2024-01-16T04:26:26.626Z,21.55
2024-01-16T04:27:26.587Z,21.64
2024-01-16T04:28:26.598Z,21.59
2024-01-16T04:29:26.671Z,21.64
2024-01-16T04:30:26.636Z,21.59
2024-01-16T04:31:33.802Z,21.64
2024-01-16T04:32:33.919Z,21.57
2024-01-16T04:33:33.876Z,21.58
2024-01-16T04:34:33.725Z,21.62
2024-01-16T04:35:33.773Z,21.60
2024-01-16T04:36:33.754Z,21.60
2024-01-16T04:37:33.763Z,21.59
2024-01-16T04:38:33.802Z,21.63
2024-01-16T04:39:33.732Z,21.62
2024-01-16T04:40:33.747Z,21.60
2024-01-16T04:41:33.811Z,21.60
2024-01-16T04:42:33.757Z,21.63
2024-01-16T04:43:33.782Z,21.57
2024-01-16T04:44:33.797Z,21.55
2024-01-16T04:45:33.767Z,21.52
2024-01-16T04:46:33.747Z,21.57
2024-01-16T04:47:33.873Z,21.54
2024-01-16T04:48:33.805Z,21.59
2024-01-16T04:49:33.854Z,21.55
2024-01-16T04:50:33.859Z,21.54
2024-01-16T04:51:33.738Z,21.55
2024-01-16T04:52:33.744Z,21.57
2024-01-16T04:53:33.850Z,21.54
2024-01-16T04:54:33.750Z,21.57
2024-01-16T04:55:33.756Z,21.57
2024-01-16T04:56:33.778Z,21.49
2024-01-16T04:57:33.751Z,21.55
2024-01-16T04:58:33.767Z,21.52
2024-01-16T04:59:33.819Z,21.54
2024-01-16T05:00:33.839Z,21.55
2024-01-16T05:01:33.821Z,21.54
2024-01-16T05:02:33.964Z,21.55
2024-01-16T05:03:33.991Z,21.46
2024-01-16T05:04:34.004Z,21.38
2024-01-16T05:05:34.233Z,21.32
2024-01-16T05:06:34.183Z,21.32
2024-01-16T05:07:34.181Z,21.21
2024-01-16T05:08:34.267Z,21.20
2024-01-16T05:09:34.251Z,21.15
2024-01-16T05:10:34.352Z,21.12
2024-01-16T05:11:34.416Z,21.08
2024-01-16T05:12:34.460Z,20.96
2024-01-16T05:13:34.471Z,20.94
2024-01-16T05:14:34.574Z,20.85
2024-01-16T05:15:34.615Z,20.85
2024-01-16T05:16:34.669Z,20.83
2024-01-16T05:17:34.824Z,20.81
2024-01-16T05:18:34.990Z,20.65
2024-01-16T05:19:34.879Z,20.70
2024-01-16T05:20:34.983Z,20.60
2024-01-16T05:21:35.030Z,20.56
2024-01-16T05:22:35.046Z,20.53
2024-01-16T05:23:35.202Z,20.54
2024-01-16T05:24:35.224Z,20.53
2024-01-16T05:25:35.279Z,20.48
2024-01-16T05:26:35.361Z,20.38
2024-01-16T05:27:35.397Z,20.34
2024-01-16T05:28:35.445Z,20.32
2024-01-16T05:29:35.579Z,20.28
2024-01-16T05:30:35.629Z,20.22
2024-01-16T05:31:35.645Z,20.30
2024-01-16T05:32:35.797Z,20.33
2024-01-16T05:33:35.841Z,20.37
2024-01-16T05:34:35.923Z,20.31
2024-01-16T05:35:35.884Z,20.33
2024-01-16T05:36:35.970Z,20.30
2024-01-16T05:37:36.065Z,20.32
2024-01-16T05:38:36.137Z,20.39
2024-01-16T05:39:36.215Z,20.34
2024-01-16T05:40:36.285Z,20.32
2024-01-16T05:41:36.326Z,20.36
2024-01-16T05:42:36.375Z,20.32
2024-01-16T05:43:36.430Z,20.30
2024-01-16T05:44:36.623Z,20.30
2024-01-16T05:45:36.574Z,20.32
2024-01-16T05:46:36.634Z,20.33
2024-01-16T05:47:36.860Z,20.33
2024-01-16T05:48:36.841Z,20.39
2024-01-16T05:49:36.933Z,20.41
2024-01-16T05:50:37.032Z,20.41
2024-01-16T05:51:36.963Z,20.39
2024-01-16T05:52:37.049Z,20.44
2024-01-16T05:53:37.198Z,20.47
2024-01-16T05:54:37.193Z,20.45
2024-01-16T05:55:37.336Z,20.47
2024-01-16T05:56:37.379Z,20.48
2024-01-16T05:57:37.423Z,20.45
2024-01-16T05:58:37.434Z,20.44
2024-01-16T05:59:37.537Z,20.50
2024-01-16T06:00:37.604Z,20.44
2024-01-16T06:01:37.656Z,20.47
2024-01-16T06:02:37.738Z,20.50
2024-01-16T06:03:37.809Z,20.53
2024-01-16T06:04:37.920Z,20.57
2024-01-16T06:05:38.142Z,20.51
2024-01-16T06:06:38.027Z,20.54
2024-01-16T06:07:38.060Z,20.56
2024-01-16T06:08:38.164Z,20.59
2024-01-16T06:09:38.218Z,20.60
2024-01-16T06:10:38.259Z,20.56
2024-01-16T06:11:38.446Z,20.56
2024-01-16T06:12:38.409Z,20.59
2024-01-16T06:13:38.494Z,20.64
2024-01-16T06:14:38.668Z,20.59
2024-01-16T06:15:38.665Z,20.59
2024-01-16T06:16:38.683Z,20.65
2024-01-16T06:17:38.882Z,20.62
2024-01-16T06:18:38.928Z,20.64
2024-01-16T06:19:38.961Z,20.64
2024-01-16T06:20:38.987Z,20.68
2024-01-16T06:21:39.009Z,20.64
2024-01-16T06:22:39.139Z,20.62
2024-01-16T06:23:39.198Z,20.66
2024-01-16T06:24:39.241Z,20.66
2024-01-16T06:25:39.307Z,20.71
2024-01-16T06:26:39.379Z,20.68
2024-01-16T06:27:39.433Z,20.68
2024-01-16T06:28:39.511Z,20.66
2024-01-16T06:29:39.570Z,20.71
2024-01-16T06:30:39.691Z,20.74
2024-01-16T06:31:39.697Z,20.71
2024-01-16T06:32:39.945Z,20.88
2024-01-16T06:33:39.947Z,20.97
2024-01-16T06:34:39.934Z,20.89
2024-01-16T06:35:40.015Z,20.87
2024-01-16T06:36:40.025Z,20.94
2024-01-16T06:37:40.102Z,21.04
2024-01-16T06:38:40.210Z,21.13
2024-01-16T06:39:40.206Z,21.15
2024-01-16T06:40:40.310Z,21.23
2024-01-16T06:41:40.381Z,21.14
2024-01-16T06:42:40.421Z,21.17
2024-01-16T06:43:40.512Z,21.18
2024-01-16T06:44:40.603Z,21.15
2024-01-16T06:45:40.607Z,21.08
2024-01-16T06:46:40.633Z,21.23
2024-01-16T06:47:41.065Z,21.40
2024-01-16T06:48:40.985Z,21.54
2024-01-16T06:49:40.880Z,21.68
2024-01-16T06:50:40.990Z,21.75
2024-01-16T06:51:40.898Z,21.88
2024-01-16T06:52:40.973Z,21.98
2024-01-16T06:53:41.023Z,22.15
2024-01-16T06:54:41.005Z,22.35
2024-01-16T06:55:41.452Z,22.37
2024-01-16T06:56:41.137Z,22.47
2024-01-16T06:57:41.426Z,22.55
2024-01-16T06:58:41.441Z,22.66
2024-01-16T06:59:41.200Z,22.86
2024-01-16T07:00:41.184Z,22.77
2024-01-16T07:01:41.175Z,22.77
2024-01-16T07:02:41.256Z,22.89
2024-01-16T07:03:41.210Z,22.91
2024-01-16T07:04:41.186Z,23.00
2024-01-16T07:05:41.634Z,22.96
2024-01-16T07:06:41.220Z,22.93
2024-01-16T07:07:41.242Z,22.90
2024-01-16T07:08:41.261Z,23.17
2024-01-16T07:09:41.233Z,23.01
2024-01-16T07:10:41.437Z,22.86
2024-01-16T07:11:41.268Z,22.86
2024-01-16T07:12:41.214Z,22.80
2024-01-16T07:13:41.244Z,22.77
2024-01-16T07:14:41.350Z,22.77
2024-01-16T07:15:41.255Z,22.77
2024-01-16T07:16:41.259Z,22.65
2024-01-16T07:17:41.406Z,22.71
2024-01-16T07:18:43.613Z,22.53
2024-01-16T07:19:41.343Z,22.62
2024-01-16T07:20:41.467Z,22.65
2024-01-16T07:21:41.307Z,22.58
2024-01-16T07:22:41.282Z,22.55
2024-01-16T07:23:41.302Z,22.41
2024-01-16T07:24:41.307Z,22.43
2024-01-16T07:25:41.299Z,22.38
2024-01-16T07:26:41.497Z,22.47
2024-01-16T07:27:41.299Z,22.55
2024-01-16T07:28:41.259Z,22.49
2024-01-16T07:29:41.338Z,22.49
2024-01-16T07:30:41.357Z,22.45
2024-01-16T07:31:41.309Z,22.37
2024-01-16T07:32:41.500Z,22.46
2024-01-16T07:33:41.434Z,22.63
2024-01-16T07:34:41.322Z,22.56
2024-01-16T07:35:41.292Z,22.50
2024-01-16T07:36:41.294Z,22.45
2024-01-16T07:37:41.324Z,22.41
2024-01-16T07:38:41.326Z,22.44
2024-01-16T07:39:41.347Z,22.38
2024-01-16T07:40:41.320Z,22.23
2024-01-16T07:41:41.354Z,22.15
2024-01-16T07:42:41.266Z,22.20
2024-01-16T07:43:41.341Z,22.14
2024-01-16T07:44:41.370Z,22.18
2024-01-16T07:45:41.449Z,22.08
2024-01-16T07:46:41.280Z,22.08
2024-01-16T07:47:41.392Z,21.91
2024-01-16T07:48:41.422Z,21.91
2024-01-16T07:49:41.348Z,21.84
2024-01-16T07:50:41.551Z,21.80
2024-01-16T07:51:41.292Z,21.81
2024-01-16T07:52:41.303Z,21.71
2024-01-16T07:53:41.370Z,21.63
2024-01-16T07:54:41.470Z,21.65
2024-01-16T07:55:41.320Z,21.69
2024-01-16T07:56:41.382Z,21.66
2024-01-16T07:57:41.413Z,21.59
2024-01-16T07:58:41.464Z,21.60
2024-01-16T07:59:42.074Z,21.60
2024-01-16T08:00:42.025Z,21.63
2024-01-16T08:01:41.656Z,21.56
2024-01-16T08:02:41.777Z,21.56
2024-01-16T08:03:41.772Z,21.61
2024-01-16T08:04:41.817Z,21.48
2024-01-16T08:05:42.055Z,21.50
2024-01-16T08:06:42.044Z,21.44
2024-01-16T08:07:41.999Z,21.40
2024-01-16T08:08:42.048Z,21.40
2024-01-16T08:09:42.137Z,21.38
2024-01-16T08:10:42.197Z,21.37
2024-01-16T08:11:42.258Z,21.37
2024-01-16T08:12:42.220Z,21.42
2024-01-16T08:13:42.308Z,21.34
2024-01-16T08:14:42.342Z,21.43
2024-01-16T08:15:42.444Z,21.46
2024-01-16T08:16:42.406Z,21.44
2024-01-16T08:17:42.625Z,21.33
2024-01-16T08:18:42.599Z,21.36
2024-01-16T08:19:42.606Z,21.29
2024-01-16T08:20:42.609Z,21.33
2024-01-16T08:21:42.629Z,21.40
2024-01-16T08:22:42.656Z,21.40
2024-01-16T08:23:42.729Z,21.41
2024-01-16T08:24:42.983Z,21.41
2024-01-16T08:25:42.759Z,21.41
2024-01-16T08:26:42.861Z,21.41
2024-01-16T08:27:42.840Z,21.30
2024-01-16T08:28:42.843Z,21.37
2024-01-16T08:29:42.931Z,21.43
2024-01-16T08:30:42.941Z,21.37
2024-01-16T08:31:42.964Z,21.38
2024-01-16T08:32:43.144Z,21.37
2024-01-16T08:33:46.748Z,21.49
2024-01-16T08:34:43.126Z,21.40
2024-01-16T08:35:43.083Z,21.51
2024-01-16T08:36:43.057Z,21.49
2024-01-16T08:37:43.027Z,21.40
2024-01-16T08:38:43.149Z,21.33
2024-01-16T08:39:43.029Z,21.13
2024-01-16T08:40:43.027Z,21.04
2024-01-16T08:41:43.140Z,20.94
2024-01-16T08:42:43.045Z,20.88
2024-01-16T08:43:43.022Z,20.78
2024-01-16T08:44:43.060Z,20.69
2024-01-16T08:45:43.034Z,20.65
2024-01-16T08:46:43.040Z,20.60
2024-01-16T08:47:43.130Z,20.50
2024-01-16T08:48:43.166Z,20.40
2024-01-16T08:49:43.086Z,20.34
2024-01-16T08:50:43.058Z,20.19
2024-01-16T08:51:43.077Z,20.21
2024-01-16T08:52:43.068Z,20.16
2024-01-16T08:53:43.117Z,20.04
2024-01-16T08:54:43.064Z,19.90
2024-01-16T08:55:43.104Z,19.89
2024-01-16T08:56:43.159Z,19.89
2024-01-16T08:57:43.137Z,19.81
2024-01-16T08:58:43.188Z,19.75
2024-01-16T08:59:43.271Z,19.75
2024-01-16T09:00:43.286Z,19.66
2024-01-16T09:01:43.251Z,19.63
2024-01-16T09:02:43.338Z,19.58
2024-01-16T09:03:43.289Z,19.51
2024-01-16T09:04:43.367Z,19.51
2024-01-16T09:05:43.430Z,19.46
2024-01-16T09:06:43.568Z,19.31
2024-01-16T09:07:43.364Z,19.30
2024-01-16T09:08:43.413Z,19.20
2024-01-16T09:09:43.391Z,19.19
2024-01-16T09:10:43.407Z,19.21
2024-01-16T09:11:43.431Z,19.24
2024-01-16T09:12:43.452Z,19.19
2024-01-16T09:13:43.431Z,19.21
2024-01-16T09:14:43.535Z,19.28
2024-01-16T09:15:43.474Z,19.22
2024-01-16T09:16:43.476Z,19.24
2024-01-16T09:17:43.617Z,19.29
2024-01-16T09:18:43.553Z,19.24
2024-01-16T09:19:43.563Z,19.34
2024-01-16T09:20:43.608Z,19.35
2024-01-16T09:21:43.519Z,19.29
2024-01-16T09:22:43.531Z,19.29
2024-01-16T09:23:44.092Z,19.27
2024-01-16T09:24:43.545Z,19.32
2024-01-16T09:25:46.765Z,19.32
2024-01-16T09:26:43.675Z,19.32
2024-01-16T09:27:43.596Z,19.29
2024-01-16T09:28:43.584Z,19.34
2024-01-16T09:29:43.684Z,19.34
2024-01-16T09:30:43.725Z,19.32
2024-01-16T09:31:43.564Z,19.35
2024-01-16T09:32:43.664Z,18.53
2024-01-16T09:33:43.707Z,18.16
2024-01-16T09:34:43.586Z,18.38
2024-01-16T09:35:43.586Z,18.27
2024-01-16T09:36:43.573Z,18.45
2024-01-16T09:37:43.572Z,18.61
2024-01-16T09:38:43.650Z,18.60
2024-01-16T09:39:44.005Z,18.60
2024-01-16T09:40:43.784Z,18.69
2024-01-16T09:41:43.906Z,18.61
2024-01-16T09:42:43.877Z,18.61
2024-01-16T09:43:43.933Z,18.73
2024-01-16T09:44:44.068Z,18.78
2024-01-16T09:45:44.043Z,18.66
2024-01-16T09:46:44.132Z,18.64
2024-01-16T09:47:44.226Z,18.67
2024-01-16T09:48:44.243Z,18.57
2024-01-16T09:49:44.563Z,18.45
2024-01-16T09:50:44.396Z,18.53
2024-01-16T09:51:44.390Z,18.51
2024-01-16T09:52:44.463Z,18.45
2024-01-16T09:53:44.577Z,18.39
2024-01-16T09:54:44.591Z,18.40
2024-01-16T09:55:44.680Z,18.37
2024-01-16T09:56:44.848Z,18.39
2024-01-16T09:57:44.779Z,18.37
2024-01-16T09:58:44.810Z,18.45
2024-01-16T09:59:44.940Z,18.27
2024-01-16T10:00:45.017Z,18.28
2024-01-16T10:01:45.021Z,18.22
2024-01-16T10:02:45.077Z,18.21
2024-01-16T10:03:45.150Z,18.19
2024-01-16T10:04:45.521Z,18.24
2024-01-16T10:05:45.606Z,18.12
2024-01-16T10:06:45.387Z,18.07
2024-01-16T10:07:45.441Z,18.13
2024-01-16T10:08:45.496Z,18.24
2024-01-16T10:09:45.529Z,18.20
2024-01-16T10:10:49.069Z,18.21
2024-01-16T10:11:45.665Z,18.24
2024-01-16T10:12:46.017Z,18.18
2024-01-16T10:13:45.591Z,18.04
2024-01-16T10:14:45.606Z,18.13
2024-01-16T10:15:46.044Z,18.13
2024-01-16T10:16:45.569Z,18.10
2024-01-16T10:17:45.653Z,18.04
2024-01-16T10:18:45.750Z,17.96
2024-01-16T10:19:48.932Z,18.06
2024-01-16T10:20:45.578Z,18.00
2024-01-16T10:21:45.599Z,17.90
2024-01-16T10:22:45.591Z,17.80
2024-01-16T10:23:45.605Z,17.71
2024-01-16T10:24:45.597Z,17.78
2024-01-16T10:25:45.614Z,17.83
2024-01-16T10:26:45.605Z,17.95
2024-01-16T10:27:46.047Z,18.01
2024-01-16T10:28:45.591Z,17.95
2024-01-16T10:29:50.536Z,17.88
2024-01-16T10:30:46.711Z,17.86
2024-01-16T10:31:45.677Z,18.01
2024-01-16T10:32:45.837Z,18.04
2024-01-16T10:33:45.793Z,18.06
2024-01-16T10:34:45.665Z,17.89
2024-01-16T10:35:45.651Z,17.92
2024-01-16T10:36:45.587Z,17.79
2024-01-16T10:37:45.638Z,17.78
2024-01-16T10:38:45.646Z,17.81
2024-01-16T10:39:45.667Z,17.83
2024-01-16T10:40:45.759Z,17.74
2024-01-16T10:41:45.911Z,17.69
2024-01-16T10:42:45.912Z,17.74
2024-01-16T10:43:45.998Z,17.85
2024-01-16T10:44:46.046Z,17.75
2024-01-16T10:45:46.098Z,17.78
2024-01-16T10:46:46.118Z,17.79
2024-01-16T10:47:46.224Z,17.84
2024-01-16T10:48:46.603Z,17.87
2024-01-16T10:49:46.758Z,17.89
2024-01-16T10:50:46.519Z,17.96
2024-01-16T10:51:46.470Z,17.99
2024-01-16T10:52:46.546Z,17.98
2024-01-16T10:53:46.666Z,17.96
2024-01-16T10:54:46.704Z,17.98
2024-01-16T10:55:47.044Z,17.95
2024-01-16T10:56:46.806Z,17.89
2024-01-16T10:57:46.888Z,17.78
2024-01-16T10:58:46.962Z,17.72
2024-01-16T10:59:47.005Z,17.65
2024-01-16T11:00:47.089Z,17.74
2024-01-16T11:01:47.156Z,17.66
2024-01-16T11:02:47.241Z,17.72
2024-01-16T11:03:47.595Z,17.68
2024-01-16T11:04:47.343Z,16.78
2024-01-16T11:05:47.494Z,17.56
2024-01-16T11:06:47.646Z,17.41
2024-01-16T11:07:47.481Z,17.44
2024-01-16T11:08:47.606Z,17.47
2024-01-16T11:09:47.611Z,17.67
2024-01-16T11:10:47.634Z,17.55
2024-01-16T11:11:48.112Z,17.81
2024-01-16T11:12:47.725Z,17.84
2024-01-16T11:13:48.082Z,17.81
2024-01-16T11:14:47.866Z,17.74
2024-01-16T11:15:48.084Z,17.70
2024-01-16T11:16:47.986Z,17.78
2024-01-16T11:17:48.079Z,17.78
2024-01-16T11:18:48.125Z,17.91
2024-01-16T11:20:01.709Z,17.93
2024-01-16T11:21:49.337Z,17.81
2024-01-16T11:22:48.200Z,17.89
2024-01-16T11:23:48.855Z,17.64
2024-01-16T11:24:48.180Z,17.68
2024-01-16T11:25:48.188Z,17.75
2024-01-16T11:26:48.265Z,17.77
2024-01-16T11:27:48.221Z,17.90
2024-01-16T11:28:48.143Z,17.96
2024-01-16T11:29:48.167Z,18.06
2024-01-16T11:30:48.190Z,17.88
2024-01-16T11:31:48.182Z,18.09
2024-01-16T11:32:48.312Z,18.08
2024-01-16T11:33:48.296Z,18.08
2024-01-16T11:34:48.171Z,17.99
2024-01-16T11:35:48.189Z,17.99
2024-01-16T11:36:48.163Z,18.02
2024-01-16T11:37:48.194Z,18.05
2024-01-16T11:38:48.216Z,17.99
2024-01-16T11:39:48.176Z,18.10
2024-01-16T11:40:48.639Z,18.04
2024-01-16T11:41:48.222Z,18.07
2024-01-16T11:42:48.196Z,18.03
2024-01-16T11:43:48.284Z,18.07
2024-01-16T11:44:49.222Z,18.12
2024-01-16T11:45:48.363Z,18.06
2024-01-16T11:46:48.396Z,18.00
2024-01-16T11:47:48.534Z,18.15
2024-01-16T11:48:48.581Z,17.95
2024-01-16T11:49:48.528Z,18.06
2024-01-16T11:50:48.689Z,18.08
2024-01-16T11:51:48.621Z,18.05
2024-01-16T11:52:48.671Z,18.11
2024-01-16T11:53:48.803Z,18.09
2024-01-16T11:54:48.777Z,18.14
2024-01-16T11:55:48.792Z,18.10
2024-01-16T11:56:49.422Z,18.15
2024-01-16T11:57:48.893Z,18.14
2024-01-16T11:58:49.090Z,18.10
2024-01-16T11:59:49.164Z,18.05
2024-01-16T12:00:49.141Z,18.07
2024-01-16T12:01:49.043Z,18.13
2024-01-16T12:02:49.166Z,18.13
2024-01-16T12:03:49.619Z,18.16
2024-01-16T12:04:49.177Z,18.12
2024-01-16T12:05:49.248Z,18.15
2024-01-16T12:06:49.339Z,18.09
2024-01-16T12:07:49.296Z,18.18
2024-01-16T12:08:49.350Z,18.16
2024-01-16T12:09:49.315Z,18.07
2024-01-16T12:10:49.412Z,18.12
2024-01-16T12:11:49.426Z,18.15
2024-01-16T12:12:49.653Z,18.16
2024-01-16T12:13:49.482Z,18.12
2024-01-16T12:14:49.555Z,18.12
2024-01-16T12:15:49.593Z,18.15
2024-01-16T12:16:50.073Z,18.12
2024-01-16T12:17:49.785Z,18.16
2024-01-16T12:18:50.121Z,18.17
2024-01-16T12:19:49.737Z,18.16
2024-01-16T12:20:49.769Z,18.12
2024-01-16T12:21:50.094Z,18.15
2024-01-16T12:22:49.847Z,18.13
2024-01-16T12:23:56.234Z,18.10
2024-01-16T12:24:50.830Z,18.31
2024-01-16T12:26:01.802Z,18.40
2024-01-16T12:26:50.949Z,18.46
2024-01-16T12:27:49.844Z,18.54
2024-01-16T12:28:49.883Z,18.57
2024-01-16T12:29:49.960Z,18.60
2024-01-16T12:30:49.957Z,18.55
2024-01-16T12:31:49.846Z,18.59
2024-01-16T12:32:58.601Z,18.65
2024-01-16T12:33:58.184Z,18.63
2024-01-16T12:34:50.986Z,18.68
2024-01-16T12:35:50.580Z,18.66
2024-01-16T12:36:49.872Z,18.68
2024-01-16T12:37:49.865Z,18.66
2024-01-16T12:38:49.909Z,18.55
2024-01-16T12:39:49.893Z,18.53
2024-01-16T12:40:49.878Z,18.54
2024-01-16T12:41:49.907Z,18.57
2024-01-16T12:42:49.870Z,18.57
2024-01-16T12:43:57.743Z,18.54
2024-01-16T12:44:50.937Z,18.60
2024-01-16T12:45:49.898Z,18.56
2024-01-16T12:46:49.876Z,18.57
2024-01-16T12:47:52.096Z,18.53
2024-01-16T12:48:56.561Z,18.59
2024-01-16T12:49:50.993Z,18.57
2024-01-16T12:50:49.909Z,18.55
2024-01-16T12:51:49.909Z,18.53
2024-01-16T12:52:49.901Z,18.63
2024-01-16T12:53:49.934Z,18.57